This is the latest recevied weather packets stored in our database for station/object W8RD. If no packets are shown the sender has not sent any weather packets the latest 10 day(s).
| Time | Temp. | Humidity | Pressure | Rain* | Wind** | Luminosity | Snow |
|---|---|---|---|---|---|---|---|
| 1777389380 | 26.67° C | 55% | 1021.5 hPa | 0 mm | - | 34 W/m² | - |
| 1777388776 | 26.67° C | 58% | 1021.5 hPa | 0 mm | - | 32 W/m² | - |
| 1777388173 | 26.11° C | 64% | 1021.4 hPa | 0 mm | - | 100 W/m² | - |
| 1777386968 | 25.56° C | 64% | 1021.3 hPa | 0 mm | - | 32 W/m² | - |
| 1777386363 | 25.56° C | 66% | 1021.3 hPa | 0 mm | - | 28 W/m² | - |
| 1777385763 | 25° C | 69% | 1021.2 hPa | 0 mm | - | 28 W/m² | - |
| 1777385162 | 24.44° C | 71% | 1021.1 hPa | 0 mm | - | 27 W/m² | - |
| 1777383958 | 23.33° C | 75% | 1021.2 hPa | 0 mm | - | 31 W/m² | - |
| 1777383357 | 23.33° C | 76% | 1021.1 hPa | 0 mm | - | 53 W/m² | - |
| 1777382755 | 22.78° C | 78% | 1021.2 hPa | 0 mm | - | 25 W/m² | - |
| 1777382153 | 22.78° C | 80% | 1021.2 hPa | 0 mm | - | 24 W/m² | - |
| 1777381549 | 22.22° C | 81% | 1021.2 hPa | 0 mm | - | 24 W/m² | - |
| 1777380948 | 21.67° C | 83% | 1021.2 hPa | 0 mm | - | 23 W/m² | - |
| 1777379744 | 21.11° C | 84% | 1020.8 hPa | 0 mm | - | 22 W/m² | - |
| 1777378538 | 20.56° C | 86% | 1020.6 hPa | 0 mm | - | 20 W/m² | - |
| 1777377939 | 20.56° C | 87% | 1020.3 hPa | 0 mm | - | 19 W/m² | - |
| 1777377334 | 20° C | 88% | 1020.4 hPa | 0 mm | - | 18 W/m² | - |
| 1777376734 | 20° C | 89% | 1020.3 hPa | 0 mm | - | 16 W/m² | - |
| 1777376132 | 19.44° C | 92% | 1020.3 hPa | 0 mm | - | 24 W/m² | - |
| 1777375527 | 18.89° C | 92% | 1020 hPa | 0 mm | - | 11 W/m² | - |
| 1777374323 | 18.89° C | 92% | 1019.8 hPa | 0 mm | - | 5 W/m² | - |
| 1777372517 | 18.89° C | 92% | 1019.6 hPa | 0 mm | - | 0 W/m² | - |
| 1777371915 | 18.89° C | 92% | 1019.7 hPa | 0 mm | - | 0 W/m² | - |
| 1777371315 | 18.89° C | 92% | 1019.5 hPa | 0 mm | - | 0 W/m² | - |
| 1777370713 | 18.89° C | 92% | 1019.5 hPa | 0 mm | - | 0 W/m² | - |
* Rain latest hour (hover to see other rain measurements)
** Current wind speed in m/s (hover to see current wind gust speed)